Time;durP1;ratioP1;P1;durP2;ratioP2;P2;SDS_P1;SDS_P2;PMS_P1;PMS_P2;Temp;Humidity;BMP_temperature;BMP_pressure;BME280_temperature;BME280_humidity;BME280_pressure;Samples;Min_cycle;Max_cycle;Signal;HPM_P1;HPM_P2
2023/03/21 00:01:45;;;;;;;0.45;0.30;;;;;;;1.46;71.91;101180.75;5073710;28;20044;-74
2023/03/21 00:04:12;;;;;;;0.45;0.20;;;;;;;1.46;72.24;101179.06;5085705;28;20508;-74
2023/03/21 00:06:39;;;;;;;0.73;0.20;;;;;;;1.47;71.40;101175.63;5077069;28;20580;-74
2023/03/21 00:09:06;;;;;;;0.77;0.40;;;;;;;1.47;72.28;101182.50;5076366;28;20102;-75
2023/03/21 00:11:33;;;;;;;0.70;0.30;;;;;;;1.46;72.19;101185.91;5082291;28;20048;-74
2023/03/21 00:14:01;;;;;;;0.68;0.30;;;;;;;1.44;71.59;101175.56;5078391;28;20060;-74
2023/03/21 00:16:34;;;;;;;0.65;0.40;;;;;;;1.47;72.19;101178.22;5081297;28;20126;-74
2023/03/21 00:19:04;;;;;;;0.55;0.50;;;;;;;1.47;71.75;101183.34;5079165;28;21627;-74
2023/03/21 00:21:32;;;;;;;0.55;0.30;;;;;;;1.48;71.97;101176.50;5081844;28;20106;-74
2023/03/21 00:24:00;;;;;;;0.90;0.30;;;;;;;1.49;72.21;101178.25;5076665;28;20126;-74
2023/03/21 00:26:27;;;;;;;1.63;0.38;;;;;;;1.49;71.82;101173.97;5077628;28;20412;-74
2023/03/21 00:28:54;;;;;;;1.98;0.52;;;;;;;1.49;72.30;101173.97;5076395;28;20424;-74
2023/03/21 00:31:21;;;;;;;0.70;0.43;;;;;;;1.51;72.27;101172.31;5078538;28;20050;-74
2023/03/21 00:33:48;;;;;;;2.55;0.50;;;;;;;1.50;72.38;101170.56;5083472;28;20049;-74
2023/03/21 00:36:16;;;;;;;3.00;0.50;;;;;;;1.51;71.83;101171.47;5080631;28;20094;-74
2023/03/21 00:38:44;;;;;;;3.42;0.70;;;;;;;1.51;72.93;101166.31;5075788;28;20048;-75
2023/03/21 00:41:13;;;;;;;1.10;1.00;;;;;;;1.52;72.41;101160.31;5083938;28;20043;-75
2023/03/21 00:43:40;;;;;;;0.80;0.40;;;;;;;1.51;72.76;101164.59;5077696;28;20051;-74
2023/03/21 00:46:07;;;;;;;2.08;0.50;;;;;;;1.53;72.48;101169.78;5077889;28;20385;-74
2023/03/21 00:48:34;;;;;;;1.35;0.50;;;;;;;1.53;72.12;101167.19;5075230;28;20484;-74
2023/03/21 00:51:01;;;;;;;0.80;0.50;;;;;;;1.51;72.66;101169.75;5082460;28;20068;-74
2023/03/21 00:53:30;;;;;;;0.93;0.50;;;;;;;1.51;72.64;101167.19;5072626;28;20041;-74
2023/03/21 00:55:57;;;;;;;0.90;0.40;;;;;;;1.51;72.25;101169.75;5083308;28;20084;-74
2023/03/21 00:58:25;;;;;;;0.95;0.40;;;;;;;1.51;71.97;101164.59;5075432;28;20407;-75
2023/03/21 01:00:51;;;;;;;1.58;0.40;;;;;;;1.51;71.89;101164.59;5080825;28;20048;-75
2023/03/21 01:03:19;;;;;;;1.17;0.43;;;;;;;1.52;72.16;101174.06;5081579;28;20139;-74
2023/03/21 01:06:06;;;;;;;6.85;0.93;;;;;;;1.52;72.37;101158.59;5076781;28;20084;-75
2023/03/21 01:08:37;;;;;;;1.20;0.50;;;;;;;1.53;72.28;101174.91;5076004;28;20052;-74
2023/03/21 01:11:07;;;;;;;2.95;0.65;;;;;;;1.53;72.18;101175.78;5082696;28;20048;-74
2023/03/21 01:13:34;;;;;;;1.38;0.52;;;;;;;1.52;72.02;101176.63;5079851;28;20519;-75
2023/03/21 01:16:03;;;;;;;5.65;0.50;;;;;;;1.52;72.73;101178.34;5080947;28;20493;-74
2023/03/21 01:18:32;;;;;;;2.00;0.80;;;;;;;1.51;72.84;101182.63;5081570;28;20055;-75
2023/03/21 01:21:00;;;;;;;1.73;0.57;;;;;;;1.52;72.70;101180.91;5081617;28;20135;-74
2023/03/21 01:23:29;;;;;;;1.90;0.70;;;;;;;1.52;72.09;101184.34;5079878;28;20044;-74
2023/03/21 01:25:58;;;;;;;1.42;0.60;;;;;;;1.52;72.66;101189.50;5083307;28;20059;-74
2023/03/21 01:28:28;;;;;;;1.10;0.65;;;;;;;1.52;72.45;101192.06;5080607;28;20048;-74
2023/03/21 01:30:55;;;;;;;1.27;0.77;;;;;;;1.53;72.79;101190.38;5083016;28;20052;-74
2023/03/21 01:33:23;;;;;;;1.98;0.75;;;;;;;1.52;72.72;101186.94;5079934;28;20501;-74
2023/03/21 01:35:49;;;;;;;0.98;0.50;;;;;;;1.52;72.98;101184.34;5078911;28;20515;-74
2023/03/21 01:38:16;;;;;;;1.95;0.50;;;;;;;1.50;72.71;101193.72;5079559;28;20808;-74
2023/03/21 01:40:45;;;;;;;0.60;0.40;;;;;;;1.51;72.70;101202.34;5079794;28;20051;-74
2023/03/21 01:43:23;;;;;;;3.85;0.60;;;;;;;1.51;72.52;101197.22;5079383;28;20054;-74
2023/03/21 01:46:36;;;;;;;2.30;0.40;;;;;;;1.51;72.32;101204.94;5082396;28;20055;-74
2023/03/21 01:49:06;;;;;;;0.57;0.30;;;;;;;1.50;72.86;101200.59;5072860;28;20090;-74
2023/03/21 01:51:36;;;;;;;2.10;0.90;;;;;;;1.51;72.36;101200.66;5082923;28;20052;-75
2023/03/21 01:54:05;;;;;;;1.50;0.50;;;;;;;1.50;72.37;101201.47;5082352;28;20421;-74
2023/03/21 01:56:37;;;;;;;1.30;0.60;;;;;;;1.51;72.44;101202.34;5083994;28;20140;-74
2023/03/21 01:59:11;;;;;;;1.45;0.63;;;;;;;1.49;72.32;101204.88;5082654;28;20861;-74
2023/03/21 02:01:41;;;;;;;4.27;1.40;;;;;;;1.50;72.33;101205.75;5079120;28;20040;-74
2023/03/21 02:04:08;;;;;;;2.78;1.35;;;;;;;1.49;72.65;101210.03;5080919;28;20281;-74
2023/03/21 02:06:43;;;;;;;2.28;1.08;;;;;;;1.51;72.23;101208.38;5077854;28;20067;-74
2023/03/21 02:09:14;;;;;;;4.95;1.15;;;;;;;1.49;72.73;101204.88;5081300;28;20040;-75
2023/03/21 02:11:45;;;;;;;4.07;1.30;;;;;;;1.53;72.19;101209.25;5079033;28;20076;-74
2023/03/21 02:14:15;;;;;;;4.57;1.20;;;;;;;1.51;72.83;101213.53;5081434;28;20060;-74
2023/03/21 02:17:01;;;;;;;3.75;1.50;;;;;;;1.53;72.81;101209.25;5073766;28;20130;-74
2023/03/21 02:20:07;;;;;;;3.67;0.98;;;;;;;1.53;72.68;101216.97;5080485;28;20052;-74
2023/03/21 02:23:24;;;;;;;1.65;0.63;;;;;;;1.53;72.18;101214.41;5076818;28;20153;-74
2023/03/21 02:26:21;;;;;;;6.72;1.33;;;;;;;1.53;72.50;101211.84;5078415;28;20055;-74
2023/03/21 02:28:55;;;;;;;1.35;0.45;;;;;;;1.51;72.53;101216.09;5079974;28;20134;-74
2023/03/21 02:31:41;;;;;;;0.90;0.50;;;;;;;1.53;72.77;101208.38;5076514;28;20044;-74
2023/03/21 02:34:47;;;;;;;1.50;0.50;;;;;;;1.53;72.48;101216.97;5080794;28;20041;-74
2023/03/21 02:37:21;;;;;;;1.55;0.45;;;;;;;1.47;73.05;101200.53;5069356;28;20060;-75
2023/03/21 02:39:56;;;;;;;6.85;0.65;;;;;;;1.52;72.29;101215.25;5077759;28;20068;-74
2023/03/21 02:42:33;;;;;;;1.88;0.60;;;;;;;1.53;72.35;101216.97;5078804;28;20066;-74
2023/03/21 02:45:05;;;;;;;1.58;0.70;;;;;;;1.53;72.70;101219.56;5075943;28;20044;-74
2023/03/21 02:47:37;;;;;;;2.08;0.70;;;;;;;1.53;72.71;101214.41;5076952;28;20054;-74
2023/03/21 02:50:09;;;;;;;2.92;1.20;;;;;;;1.54;72.78;101210.16;5078013;28;20060;-74
2023/03/21 02:52:40;;;;;;;3.53;0.70;;;;;;;1.54;72.12;101213.59;5079594;28;20484;-75
2023/03/21 02:55:12;;;;;;;2.67;1.10;;;;;;;1.54;72.98;101216.16;5078654;28;20692;-74
2023/03/21 02:57:43;;;;;;;2.38;0.95;;;;;;;1.55;72.63;101215.31;5079357;28;20053;-74
2023/03/21 03:00:13;;;;;;;2.80;1.25;;;;;;;1.55;72.31;101215.31;5077859;28;20420;-75
2023/03/21 03:02:40;;;;;;;1.80;0.77;;;;;;;1.54;72.43;101211.03;5079887;28;20489;-74
2023/03/21 03:05:19;;;;;;;7.43;1.20;;;;;;;1.56;73.19;101211.91;5083287;28;20056;-74
2023/03/21 03:08:12;;;;;;;4.25;1.10;;;;;;;1.56;73.05;101211.91;5080858;28;20059;-74
2023/03/21 03:10:58;;;;;;;8.38;1.52;;;;;;;1.57;72.29;101221.41;5078250;28;20428;-74
2023/03/21 03:13:38;;;;;;;3.55;1.50;;;;;;;1.57;73.02;101218.81;5074656;28;20528;-74
2023/03/21 03:16:14;;;;;;;5.30;1.88;;;;;;;1.57;72.99;101223.97;5079684;28;20048;-75
2023/03/21 03:18:48;;;;;;;10.48;2.50;;;;;;;1.57;72.46;101218.81;5079259;28;20817;-74
2023/03/21 03:21:21;;;;;;;8.88;2.72;;;;;;;1.58;73.08;101225.69;5075421;28;20047;-74
2023/03/21 03:23:52;;;;;;;6.28;1.90;;;;;;;1.58;73.04;101228.28;5077215;28;20148;-73
2023/03/21 03:26:25;;;;;;;7.55;1.75;;;;;;;1.58;73.08;101227.41;5080701;28;20048;-72
2023/03/21 03:28:56;;;;;;;4.45;1.95;;;;;;;1.57;73.42;101218.81;5075708;28;20049;-72
2023/03/21 03:31:29;;;;;;;4.07;1.70;;;;;;;1.60;73.29;101222.31;5076719;28;20044;-72
2023/03/21 03:34:02;;;;;;;4.70;1.67;;;;;;;1.61;72.67;101224.91;5076770;28;20066;-72
2023/03/21 03:36:34;;;;;;;4.75;1.73;;;;;;;1.61;73.24;101229.19;5075951;28;20521;-72
2023/03/21 03:39:06;;;;;;;4.22;1.95;;;;;;;1.62;72.79;101223.19;5079077;28;20044;-72
2023/03/21 03:41:37;;;;;;;4.82;1.45;;;;;;;1.62;73.59;101228.34;5079437;28;20047;-73
2023/03/21 03:44:05;;;;;;;5.20;1.92;;;;;;;1.62;72.59;101231.78;5078008;28;20128;-72
2023/03/21 03:46:34;;;;;;;2.88;1.13;;;;;;;1.63;72.85;101232.69;5076678;28;20056;-72
2023/03/21 03:49:06;;;;;;;3.55;1.33;;;;;;;1.53;72.91;101222.13;5076235;28;20051;-72
2023/03/21 03:51:38;;;;;;;3.17;1.65;;;;;;;1.62;73.06;101236.06;5078207;28;20048;-72
2023/03/21 03:54:11;;;;;;;3.70;1.40;;;;;;;1.62;72.82;101241.22;5081833;28;20048;-72
2023/03/21 03:56:38;;;;;;;2.30;1.20;;;;;;;1.61;73.36;101244.66;5076310;28;20052;-73
2023/03/21 03:59:06;;;;;;;3.30;1.70;;;;;;;1.60;73.18;101248.94;5078332;28;20463;-71
2023/03/21 04:01:33;;;;;;;3.92;1.60;;;;;;;1.57;73.29;101239.41;5079212;28;20102;-72
2023/03/21 04:04:01;;;;;;;4.03;1.55;;;;;;;1.60;73.28;101253.22;5078805;28;20066;-72
2023/03/21 04:06:28;;;;;;;4.22;1.60;;;;;;;1.60;73.45;101245.47;5080243;28;20056;-72
2023/03/21 04:08:55;;;;;;;3.20;1.20;;;;;;;1.59;73.53;101244.59;5077941;28;20113;-72
2023/03/21 04:11:24;;;;;;;3.95;1.23;;;;;;;1.60;73.31;101242.91;5079084;28;20042;-72
2023/03/21 04:13:51;;;;;;;3.45;1.52;;;;;;;1.60;72.81;101248.06;5080447;28;20496;-72
2023/03/21 04:16:18;;;;;;;4.30;1.48;;;;;;;1.60;73.13;101254.06;5076049;28;20057;-72
2023/03/21 04:18:45;;;;;;;4.60;1.98;;;;;;;1.58;72.55;101246.28;5080266;28;20465;-72
2023/03/21 04:21:13;;;;;;;3.25;1.48;;;;;;;1.61;73.29;101252.38;5078587;28;20121;-72
2023/03/21 04:23:40;;;;;;;2.40;1.33;;;;;;;1.61;72.74;101252.38;5077521;28;20040;-72
2023/03/21 04:26:07;;;;;;;11.93;1.70;;;;;;;1.61;73.27;101249.78;5074383;28;20041;-71
2023/03/21 04:28:36;;;;;;;5.40;1.45;;;;;;;1.60;72.93;101246.34;5078338;28;20056;-72
2023/03/21 04:31:05;;;;;;;3.97;0.85;;;;;;;1.60;73.45;101254.06;5066296;28;20056;-72
2023/03/21 04:33:37;;;;;;;5.90;1.23;;;;;;;1.60;73.21;101243.78;5080161;28;20049;-72
2023/03/21 04:36:05;;;;;;;6.18;1.10;;;;;;;1.60;72.55;101243.78;5079583;28;20045;-72
2023/03/21 04:38:32;;;;;;;4.22;1.25;;;;;;;1.58;73.24;101251.44;5081436;28;20059;-72
2023/03/21 04:41:00;;;;;;;2.35;1.52;;;;;;;1.59;73.02;101257.47;5078128;28;20055;-73
2023/03/21 04:43:29;;;;;;;2.72;1.80;;;;;;;1.58;73.38;101261.75;5071940;28;20045;-72
2023/03/21 04:45:57;;;;;;;5.28;1.13;;;;;;;1.58;73.16;101256.59;5074583;28;20072;-72
2023/03/21 04:48:25;;;;;;;3.20;1.23;;;;;;;1.54;73.21;101254.78;5076382;28;20070;-72
2023/03/21 04:50:52;;;;;;;6.30;1.60;;;;;;;1.58;72.77;101266.91;5071169;28;20044;-72
2023/03/21 04:53:19;;;;;;;4.20;0.85;;;;;;;1.57;72.62;101270.31;5079961;28;20051;-72
2023/03/21 04:55:46;;;;;;;2.38;1.15;;;;;;;1.56;73.10;101267.69;5072199;28;21014;-72
2023/03/21 04:58:13;;;;;;;11.77;1.20;;;;;;;1.55;72.91;101266.81;5078529;28;20059;-72
2023/03/21 05:00:39;;;;;;;3.25;1.85;;;;;;;1.54;73.12;101272.81;5080166;28;20047;-72
2023/03/21 05:03:09;;;;;;;3.47;1.13;;;;;;;1.57;72.88;101279.75;5076213;28;20046;-72
2023/03/21 05:05:37;;;;;;;11.82;1.20;;;;;;;1.55;73.68;101277.13;5076644;28;20056;-72
2023/03/21 05:08:05;;;;;;;6.68;1.08;;;;;;;1.54;73.11;101283.09;5080546;28;20052;-72
2023/03/21 05:10:32;;;;;;;5.28;1.23;;;;;;;1.54;73.14;101283.09;5075660;28;20408;-72
2023/03/21 05:12:59;;;;;;;6.43;1.00;;;;;;;1.54;72.90;101287.41;5080559;28;20048;-72
2023/03/21 05:15:26;;;;;;;7.60;1.00;;;;;;;1.54;73.48;101277.97;5080406;28;20054;-73
2023/03/21 05:17:53;;;;;;;1.92;0.98;;;;;;;1.53;73.14;101283.91;5076619;28;20051;-73
2023/03/21 05:20:21;;;;;;;5.40;0.88;;;;;;;1.53;73.34;101276.19;5079250;28;20466;-72
2023/03/21 05:22:50;;;;;;;1.05;0.60;;;;;;;1.53;73.67;101280.47;5075227;28;20481;-72
2023/03/21 05:25:32;;;;;;;5.28;0.60;;;;;;;1.53;72.75;101283.91;5078104;28;20127;-72
2023/03/21 05:28:00;;;;;;;6.30;0.70;;;;;;;1.51;73.34;101277.88;5080509;28;20052;-72
2023/03/21 05:30:28;;;;;;;3.58;0.50;;;;;;;1.51;72.69;101288.19;5074950;28;20083;-72
2023/03/21 05:32:55;;;;;;;1.60;0.73;;;;;;;1.50;73.03;101289.00;5074428;28;20064;-72
2023/03/21 05:35:24;;;;;;;1.65;0.50;;;;;;;1.49;72.95;101292.41;5077499;28;20051;-72
2023/03/21 05:37:51;;;;;;;4.25;0.60;;;;;;;1.49;72.71;101291.53;5081957;28;20051;-73
2023/03/21 05:40:18;;;;;;;1.05;0.55;;;;;;;1.48;73.39;101288.09;5074561;28;20068;-72
2023/03/21 05:42:45;;;;;;;2.38;0.75;;;;;;;1.48;73.66;101288.09;5080730;28;20052;-72
2023/03/21 05:45:12;;;;;;;3.88;0.85;;;;;;;1.48;73.00;101277.81;5080745;28;20044;-72
2023/03/21 05:47:39;;;;;;;8.55;0.80;;;;;;;1.49;73.43;101276.09;5077267;28;20052;-72
2023/03/21 05:50:07;;;;;;;2.53;0.52;;;;;;;1.50;72.97;101280.41;5082488;28;20139;-72
2023/03/21 05:52:36;;;;;;;2.47;0.90;;;;;;;1.49;73.41;101279.53;5077092;28;20048;-72
2023/03/21 05:55:03;;;;;;;1.75;0.60;;;;;;;1.49;72.97;101281.25;5077239;28;20172;-72
2023/03/21 05:57:33;;;;;;;4.72;0.52;;;;;;;1.45;72.95;101279.41;5077932;28;20105;-72
2023/03/21 06:00:00;;;;;;;1.02;0.60;;;;;;;1.47;73.37;101281.19;5078350;28;20043;-73
2023/03/21 06:02:27;;;;;;;4.68;0.70;;;;;;;1.47;72.88;101277.75;5074003;28;20067;-73
2023/03/21 06:04:55;;;;;;;2.10;0.90;;;;;;;1.48;72.91;101279.47;5078346;28;20055;-71
2023/03/21 06:07:22;;;;;;;6.57;0.70;;;;;;;1.44;73.27;101280.25;5080807;28;20393;-71
2023/03/21 06:09:50;;;;;;;3.92;0.68;;;;;;;1.48;73.53;101285.53;5069769;28;20552;-71
2023/03/21 06:12:17;;;;;;;7.28;0.93;;;;;;;1.46;73.18;101291.47;5072265;28;20054;-71
2023/03/21 06:14:44;;;;;;;2.92;0.88;;;;;;;1.47;73.31;101288.91;5072181;28;20044;-71
2023/03/21 06:17:11;;;;;;;4.18;0.93;;;;;;;1.49;73.28;101294.97;5073477;28;20049;-71
2023/03/21 06:19:38;;;;;;;4.95;1.08;;;;;;;1.50;73.20;101298.41;5078704;28;20056;-71
2023/03/21 06:22:04;;;;;;;4.90;1.10;;;;;;;1.50;72.77;101303.56;5071053;28;20051;-74
2023/03/21 06:24:31;;;;;;;12.10;1.58;;;;;;;1.51;72.98;101297.63;5077487;28;20051;-71
2023/03/21 06:27:00;;;;;;;5.00;0.73;;;;;;;1.51;73.28;101305.34;5078367;28;20055;-71
2023/03/21 06:29:26;;;;;;;3.75;1.20;;;;;;;1.50;73.62;101296.72;5079374;28;20436;-71
2023/03/21 06:31:53;;;;;;;6.22;1.27;;;;;;;1.52;73.61;101300.22;5072815;28;20508;-71
2023/03/21 06:34:20;;;;;;;6.15;1.13;;;;;;;1.52;73.03;101299.34;5081480;28;20571;-71
2023/03/21 06:36:47;;;;;;;2.72;1.23;;;;;;;1.52;73.56;101300.22;5071930;28;21397;-71
2023/03/21 06:39:14;;;;;;;2.10;0.80;;;;;;;1.53;73.60;101298.50;5077928;28;20382;-71
2023/03/21 06:41:41;;;;;;;2.45;0.55;;;;;;;1.54;73.45;101295.13;5069706;28;20047;-71
2023/03/21 06:44:10;;;;;;;1.58;0.70;;;;;;;1.56;73.55;101301.16;5076714;28;20154;-71
2023/03/21 06:46:37;;;;;;;8.40;0.95;;;;;;;1.57;73.56;101301.22;5072790;28;20056;-71
2023/03/21 06:49:04;;;;;;;3.65;0.75;;;;;;;1.58;73.02;101291.78;5076445;28;20055;-71
2023/03/21 06:51:31;;;;;;;3.08;0.70;;;;;;;1.58;73.66;101300.38;5073592;28;20040;-73
2023/03/21 06:53:57;;;;;;;5.20;1.00;;;;;;;1.60;73.63;101300.44;5072297;28;20041;-72
2023/03/21 06:56:24;;;;;;;3.88;1.05;;;;;;;1.62;73.63;101303.03;5075386;28;20508;-72
2023/03/21 06:58:51;;;;;;;6.15;0.80;;;;;;;1.62;72.95;101298.75;5069023;28;21728;-73
2023/03/21 07:01:19;;;;;;;1.70;0.82;;;;;;;1.65;73.71;101303.09;5079442;28;20048;-71
2023/03/21 07:03:47;;;;;;;1.65;0.82;;;;;;;1.67;73.67;101298.88;5070576;28;20044;-72
2023/03/21 07:06:14;;;;;;;1.88;0.95;;;;;;;1.67;73.30;101301.44;5081640;28;20040;-72
2023/03/21 07:08:41;;;;;;;1.80;1.00;;;;;;;1.73;73.46;101309.31;5073302;28;20117;-72
2023/03/21 07:11:09;;;;;;;1.83;0.88;;;;;;;1.73;73.57;101301.59;5076396;28;20055;-73
2023/03/21 07:13:37;;;;;;;2.58;0.90;;;;;;;1.75;72.97;101294.78;5078133;28;20076;-72
2023/03/21 07:16:04;;;;;;;3.05;1.00;;;;;;;1.77;73.73;101303.44;5070255;28;20431;-72
2023/03/21 07:18:32;;;;;;;4.20;1.17;;;;;;;1.80;73.34;101308.66;5079348;28;20040;-72
2023/03/21 07:20:59;;;;;;;2.15;0.93;;;;;;;1.83;73.18;101308.75;5073676;28;20056;-72
2023/03/21 07:23:27;;;;;;;0.95;0.60;;;;;;;1.83;72.84;101311.31;5075587;28;20086;-72
2023/03/21 07:25:54;;;;;;;2.22;0.98;;;;;;;1.88;73.08;101312.31;5078566;28;20048;-73
2023/03/21 07:28:22;;;;;;;3.65;0.90;;;;;;;1.89;73.65;101301.16;5074133;28;20493;-72
2023/03/21 07:30:54;;;;;;;2.05;1.13;;;;;;;1.92;73.24;101314.13;5074054;28;20048;-72
2023/03/21 07:33:21;;;;;;;3.92;1.20;;;;;;;1.96;73.48;101310.81;5074936;28;20628;-72
2023/03/21 07:35:50;;;;;;;3.92;1.80;;;;;;;1.99;73.53;101304.84;5082616;28;20136;-72
2023/03/21 07:38:17;;;;;;;3.35;1.17;;;;;;;1.99;73.38;101304.84;5076002;28;20048;-72
2023/03/21 07:40:44;;;;;;;3.72;1.83;;;;;;;2.06;73.14;101313.63;5069332;28;20075;-72
2023/03/21 07:43:11;;;;;;;3.53;1.60;;;;;;;2.08;73.10;101314.50;5072615;28;20424;-71
2023/03/21 07:45:39;;;;;;;3.13;1.60;;;;;;;2.08;74.02;101310.25;5080273;28;20049;-71
2023/03/21 07:48:06;;;;;;;2.35;1.50;;;;;;;2.12;73.23;101319.78;5072812;28;20053;-71
2023/03/21 07:50:33;;;;;;;3.47;1.67;;;;;;;2.16;73.42;101323.28;5075939;28;20052;-72
2023/03/21 07:53:01;;;;;;;3.67;1.70;;;;;;;2.19;74.02;101320.78;5067034;28;20048;-71
2023/03/21 07:55:28;;;;;;;2.60;1.35;;;;;;;2.23;73.71;101330.34;5076130;28;20048;-72
2023/03/21 07:57:55;;;;;;;2.83;1.40;;;;;;;2.22;73.36;101316.59;5075511;28;20136;-72
2023/03/21 08:00:23;;;;;;;4.18;2.15;;;;;;;2.29;73.23;101324.47;5074494;28;20080;-72
2023/03/21 08:02:53;;;;;;;3.17;1.70;;;;;;;2.31;73.28;101318.53;5083163;28;20571;-71
2023/03/21 08:05:21;;;;;;;2.88;1.58;;;;;;;2.36;73.60;101322.09;5070941;28;20052;-71
2023/03/21 08:07:49;;;;;;;3.38;1.83;;;;;;;2.39;73.41;101322.16;5083286;28;20051;-72
2023/03/21 08:10:18;;;;;;;3.45;1.50;;;;;;;2.40;73.64;101311.00;5081450;28;20052;-71
2023/03/21 08:12:46;;;;;;;4.82;1.92;;;;;;;2.46;73.56;101320.59;5073707;28;20053;-71
2023/03/21 08:15:14;;;;;;;3.90;2.05;;;;;;;2.51;74.16;101323.28;5068349;28;20615;-71
2023/03/21 08:17:44;;;;;;;4.40;1.90;;;;;;;2.53;73.86;101322.47;5075231;28;20135;-72
2023/03/21 08:20:13;;;;;;;4.18;1.63;;;;;;;2.57;73.76;101315.69;5073301;28;20059;-71
2023/03/21 08:22:40;;;;;;;3.17;2.03;;;;;;;2.60;73.69;101328.66;5085434;28;20079;-72
2023/03/21 08:25:12;;;;;;;4.50;2.58;;;;;;;2.63;74.08;101332.16;5076382;28;20136;-72
2023/03/21 08:27:41;;;;;;;3.33;1.85;;;;;;;2.66;73.61;101327.06;5076060;28;20056;-72
2023/03/21 08:30:09;;;;;;;6.60;1.48;;;;;;;2.70;73.65;101330.59;5079810;28;20063;-72
2023/03/21 08:32:37;;;;;;;3.03;1.73;;;;;;;2.73;73.74;101332.38;5075423;28;20062;-73
2023/03/21 08:35:06;;;;;;;2.33;1.15;;;;;;;2.78;73.41;101333.34;5083481;28;20051;-71
2023/03/21 08:37:33;;;;;;;4.38;1.83;;;;;;;2.81;74.10;101330.84;5078628;28;20534;-72
2023/03/21 08:40:00;;;;;;;3.25;1.48;;;;;;;2.84;73.41;101326.59;5079087;28;20181;-72
2023/03/21 08:42:26;;;;;;;3.05;1.77;;;;;;;2.89;74.00;101326.72;5080575;28;20408;-71
2023/03/21 08:44:55;;;;;;;3.42;1.52;;;;;;;2.93;73.75;101328.50;5074061;28;20688;-71
2023/03/21 08:47:21;;;;;;;3.13;1.42;;;;;;;2.98;73.80;101328.63;5077720;28;20051;-72
2023/03/21 08:49:48;;;;;;;2.72;1.10;;;;;;;3.01;73.36;101328.69;5081662;28;20059;-70
2023/03/21 08:52:15;;;;;;;1.95;1.40;;;;;;;3.05;73.65;101323.63;5077299;28;20052;-72
2023/03/21 08:54:44;;;;;;;3.00;1.63;;;;;;;3.08;73.72;101320.25;5080327;28;20044;-72
2023/03/21 08:57:11;;;;;;;2.97;1.98;;;;;;;3.12;73.65;101328.06;5079333;28;20055;-72
2023/03/21 08:59:38;;;;;;;2.10;1.02;;;;;;;3.19;73.60;101325.59;5081762;28;20063;-71
2023/03/21 09:02:06;;;;;;;1.92;1.33;;;;;;;3.23;73.38;101333.47;5077246;28;20079;-71
2023/03/21 09:04:33;;;;;;;3.60;1.52;;;;;;;3.26;73.63;101325.78;5074730;28;20048;-72
2023/03/21 09:07:03;;;;;;;2.33;1.25;;;;;;;3.31;73.43;101319.00;5077526;28;20187;-72
2023/03/21 09:09:30;;;;;;;3.28;1.70;;;;;;;3.35;73.55;101325.94;5078686;28;20736;-72
2023/03/21 09:11:57;;;;;;;4.07;1.02;;;;;;;3.40;73.33;101320.03;5082412;28;20044;-72
2023/03/21 09:14:24;;;;;;;2.67;1.40;;;;;;;3.43;73.32;101326.13;5080521;28;20048;-71
2023/03/21 09:16:51;;;;;;;2.20;1.02;;;;;;;3.45;73.28;101316.69;5084571;28;20044;-72
2023/03/21 09:19:19;;;;;;;2.90;1.88;;;;;;;3.51;73.44;101319.38;5078926;28;20047;-72
2023/03/21 09:21:46;;;;;;;2.05;1.02;;;;;;;3.57;73.24;101321.22;5080414;28;20492;-72
2023/03/21 09:24:14;;;;;;;1.75;1.13;;;;;;;3.60;73.28;101316.09;5079451;28;20076;-72
2023/03/21 09:26:42;;;;;;;2.60;1.35;;;;;;;3.63;72.79;101312.72;5068384;28;20458;-72
2023/03/21 09:29:10;;;;;;;3.15;1.30;;;;;;;3.68;72.70;101314.53;5076539;28;20051;-72
2023/03/21 09:31:38;;;;;;;1.23;0.80;;;;;;;3.89;72.17;101308.00;5067013;28;20820;-72
2023/03/21 09:34:06;;;;;;;2.30;0.88;;;;;;;4.05;71.72;101310.00;5076295;28;20086;-72
2023/03/21 09:36:35;;;;;;;1.85;1.20;;;;;;;4.16;71.55;101308.47;5079094;28;20083;-72
2023/03/21 09:39:03;;;;;;;1.85;1.10;;;;;;;4.09;72.30;101316.97;5077485;28;20040;-72
2023/03/21 09:41:45;;;;;;;2.97;0.77;;;;;;;4.10;72.29;101308.38;5078702;28;20071;-72
2023/03/21 09:44:27;;;;;;;3.83;1.67;;;;;;;4.21;72.09;101300.78;5071613;28;20044;-73
2023/03/21 09:47:02;;;;;;;2.05;0.80;;;;;;;4.29;72.10;101304.34;5073599;28;20052;-72
2023/03/21 09:49:34;;;;;;;5.05;0.82;;;;;;;4.42;71.96;101302.84;5073856;28;20059;-72
2023/03/21 09:52:11;;;;;;;2.50;0.80;;;;;;;4.51;72.02;101300.38;5075440;28;20040;-72
2023/03/21 09:54:41;;;;;;;0.80;0.75;;;;;;;4.52;71.93;101296.94;5076386;28;20131;-72
2023/03/21 09:57:19;;;;;;;1.13;0.70;;;;;;;4.56;72.03;101300.47;5075122;28;20135;-72
2023/03/21 09:59:48;;;;;;;1.60;0.80;;;;;;;4.59;72.11;101293.63;5075465;28;20059;-72
2023/03/21 10:02:31;;;;;;;1.10;0.55;;;;;;;4.66;71.98;101295.41;5078093;28;20045;-72
2023/03/21 10:04:59;;;;;;;1.02;0.70;;;;;;;4.74;71.81;101293.81;5082295;28;20050;-72
2023/03/21 10:07:29;;;;;;;1.05;0.80;;;;;;;4.80;72.11;101297.34;5074333;28;20044;-72
2023/03/21 10:09:58;;;;;;;1.55;0.60;;;;;;;4.87;71.76;101296.59;5082014;28;20101;-72
2023/03/21 10:12:29;;;;;;;0.80;0.60;;;;;;;4.94;71.86;101301.84;5067247;28;20052;-72
2023/03/21 10:14:58;;;;;;;0.95;0.60;;;;;;;5.00;71.45;101298.47;5075780;28;20155;-71
2023/03/21 10:17:32;;;;;;;1.73;0.60;;;;;;;5.05;71.15;101289.03;5077991;28;20538;-72
2023/03/21 10:20:13;;;;;;;1.35;0.73;;;;;;;5.10;70.81;101292.56;5076058;28;20126;-73
2023/03/21 10:22:44;;;;;;;1.60;0.60;;;;;;;5.14;70.97;101285.69;5080054;28;20417;-72
2023/03/21 10:25:15;;;;;;;1.08;0.80;;;;;;;5.18;70.56;101285.75;5075257;28;20048;-73
2023/03/21 10:27:43;;;;;;;1.05;0.52;;;;;;;5.22;70.56;101280.63;5072696;28;20145;-73
2023/03/21 10:30:23;;;;;;;0.77;0.50;;;;;;;5.24;70.78;101274.59;5077513;28;20538;-72
2023/03/21 10:32:51;;;;;;;1.42;0.50;;;;;;;5.29;70.76;101272.03;5073936;28;20044;-72
2023/03/21 10:35:19;;;;;;;1.27;0.40;;;;;;;5.33;70.53;101273.84;5073482;28;20048;-73
2023/03/21 10:37:48;;;;;;;0.50;0.30;;;;;;;5.37;70.28;101275.59;5077081;28;20052;-72
2023/03/21 10:40:16;;;;;;;2.20;0.32;;;;;;;5.41;70.17;101272.19;5073728;28;20036;-72
2023/03/21 10:42:43;;;;;;;0.77;0.35;;;;;;;5.45;70.29;101268.78;5074493;28;20556;-72
2023/03/21 10:45:16;;;;;;;0.60;0.40;;;;;;;5.49;70.11;101264.47;5079708;28;20059;-73
2023/03/21 10:47:46;;;;;;;1.58;0.30;;;;;;;5.52;70.17;101261.91;5072042;28;20485;-72
2023/03/21 10:56:08;;;;;;;2.60;0.17;;;;;;;5.66;69.21;101257.75;5054337;28;20059;-67
2023/03/21 10:58:39;;;;;;;0.20;0.10;;;;;;;5.70;69.36;101262.13;5072490;28;20526;-67
2023/03/21 11:01:11;;;;;;;0.20;0.10;;;;;;;5.73;69.38;101254.38;5073854;28;20051;-67
2023/03/21 11:03:43;;;;;;;0.40;0.10;;;;;;;5.78;68.73;101259.59;5069709;28;20499;-67
2023/03/21 11:06:15;;;;;;;0.25;0.10;;;;;;;5.84;68.88;101257.06;5073125;28;20047;-67
2023/03/21 11:08:45;;;;;;;2.22;0.25;;;;;;;5.88;68.44;101248.44;5074536;28;20144;-67
2023/03/21 11:11:21;;;;;;;2.47;0.30;;;;;;;5.93;68.52;101243.31;5074249;28;20058;-67
2023/03/21 11:13:55;;;;;;;;;;;;;;;5.97;68.58;101248.53;5072387;28;20051;-67
2023/03/21 11:16:25;;;;;;;2.00;0.50;;;;;;;6.00;67.96;101248.56;5076366;28;19928;-67
2023/03/21 11:18:56;;;;;;;2.30;0.20;;;;;;;6.03;67.50;101246.03;5073993;28;20655;-67
2023/03/21 11:21:26;;;;;;;0.63;0.10;;;;;;;6.06;67.68;101237.38;5070581;28;20067;-67
2023/03/21 11:23:56;;;;;;;1.55;0.10;;;;;;;6.07;67.25;101234.81;5077269;28;20040;-68
2023/03/21 11:26:31;;;;;;;0.10;0.10;;;;;;;6.11;66.68;101240.00;5079377;28;20137;-68
2023/03/21 11:28:58;;;;;;;0.17;0.10;;;;;;;6.11;66.29;101235.69;5076629;28;20048;-67
2023/03/21 11:31:38;;;;;;;0.10;0.00;;;;;;;6.15;65.67;101234.88;5077248;28;20647;-68
2023/03/21 11:34:07;;;;;;;2.28;0.10;;;;;;;6.17;66.01;101230.53;5079561;28;20044;-68
2023/03/21 11:36:37;;;;;;;0.10;0.10;;;;;;;6.21;65.20;101245.28;5081535;28;20047;-68
2023/03/21 11:39:27;;;;;;;2.13;0.10;;;;;;;6.25;65.54;101230.59;5073430;28;20048;-68
2023/03/21 11:41:55;;;;;;;0.40;0.13;;;;;;;6.27;65.21;101231.47;5081154;28;20048;-68
2023/03/21 11:44:32;;;;;;;0.43;0.10;;;;;;;6.30;65.00;101226.31;5078495;28;20510;-68
2023/03/21 11:47:00;;;;;;;0.75;0.20;;;;;;;6.30;64.88;101228.91;5080694;28;20044;-67
2023/03/21 11:49:28;;;;;;;0.40;0.22;;;;;;;6.31;64.40;101231.50;5079963;28;20617;-68
2023/03/21 11:52:12;;;;;;;0.30;0.10;;;;;;;6.36;64.13;101225.47;5080249;28;20704;-68
2023/03/21 11:54:58;;;;;;;0.70;0.65;;;;;;;6.38;64.68;101221.19;5083350;28;20064;-68